Time;durP1;ratioP1;P1;durP2;ratioP2;P2;SDS_P1;SDS_P2;PMS_P1;PMS_P2;Temp;Humidity;BMP_temperature;BMP_pressure;BME280_temperature;BME280_humidity;BME280_pressure;Samples;Min_cycle;Max_cycle;Signal;HPM_P1;HPM_P2
2022/04/04 00:01:00;;;;;;;7.20;3.80;;;2.90;99.90;;;;;;4845356;29;20566;-83
2022/04/04 00:03:26;;;;;;;6.30;3.93;;;2.90;99.90;;;;;;4858801;29;20361;-84
2022/04/04 00:05:52;;;;;;;6.80;3.50;;;2.90;99.90;;;;;;4860177;29;20049;-84
2022/04/04 00:08:18;;;;;;;7.53;4.00;;;2.90;99.90;;;;;;4817646;29;20381;-84
2022/04/04 00:10:43;;;;;;;8.37;4.00;;;2.90;99.90;;;;;;4842618;29;20045;-85
2022/04/04 00:13:09;;;;;;;8.43;4.27;;;2.90;99.90;;;;;;4825942;29;20166;-84
2022/04/04 00:15:35;;;;;;;7.30;4.07;;;2.90;99.90;;;;;;4817703;29;20046;-85
2022/04/04 00:18:10;;;;;;;6.97;4.70;;;2.90;99.90;;;;;;4829529;29;20133;-86
2022/04/04 00:20:36;;;;;;;6.60;4.40;;;2.90;99.90;;;;;;4836733;29;20057;-83
2022/04/04 00:23:02;;;;;;;7.30;4.40;;;2.90;99.90;;;;;;4831310;29;20037;-84
2022/04/04 00:25:29;;;;;;;5.77;4.20;;;2.90;99.90;;;;;;4838688;29;20097;-84
2022/04/04 00:27:54;;;;;;;8.37;4.73;;;2.90;99.90;;;;;;4844550;29;20061;-84
2022/04/04 00:30:20;;;;;;;8.00;4.37;;;2.90;99.90;;;;;;4834064;29;20036;-85
2022/04/04 00:32:46;;;;;;;7.33;4.03;;;2.90;99.90;;;;;;4850303;29;20041;-84
2022/04/04 00:35:12;;;;;;;9.30;4.30;;;2.90;99.90;;;;;;4839973;29;20060;-84
2022/04/04 00:37:38;;;;;;;6.10;4.40;;;2.90;99.90;;;;;;4842649;29;20049;-83
2022/04/04 00:40:05;;;;;;;10.23;4.67;;;2.90;99.90;;;;;;4843959;29;20081;-82
2022/04/04 00:42:31;;;;;;;6.83;4.60;;;3.00;99.90;;;;;;4832935;29;20484;-83
2022/04/04 00:44:57;;;;;;;8.27;4.33;;;3.00;99.90;;;;;;4851268;29;20041;-85
2022/04/04 00:47:23;;;;;;;8.63;4.00;;;3.00;99.90;;;;;;4820402;29;20057;-82
2022/04/04 00:49:49;;;;;;;6.47;4.47;;;3.10;99.90;;;;;;4840983;29;20046;-83
2022/04/04 00:52:15;;;;;;;6.63;4.50;;;3.00;99.90;;;;;;4852398;29;20053;-83
2022/04/04 00:54:41;;;;;;;7.67;4.70;;;3.00;99.90;;;;;;4846685;29;20509;-84
2022/04/04 00:57:08;;;;;;;5.83;3.80;;;3.00;99.90;;;;;;4829520;29;20108;-84
2022/04/04 00:59:35;;;;;;;8.53;5.00;;;3.00;99.90;;;;;;4843896;29;20045;-82
2022/04/04 01:02:01;;;;;;;8.37;4.70;;;3.00;99.90;;;;;;4843982;29;20050;-84
2022/04/04 01:04:27;;;;;;;7.10;4.67;;;3.10;99.90;;;;;;4843648;29;20386;-81
2022/04/04 01:06:53;;;;;;;7.17;4.50;;;3.10;99.90;;;;;;4810722;29;20050;-83
2022/04/04 01:09:18;;;;;;;6.07;4.30;;;3.10;99.90;;;;;;4844134;29;20045;-83
2022/04/04 01:12:13;;;;;;;7.93;4.63;;;3.10;99.90;;;;;;4828973;29;20049;-83
2022/04/04 01:14:48;;;;;;;8.07;5.00;;;3.00;99.90;;;;;;4820439;29;20054;-84
2022/04/04 01:17:15;;;;;;;8.90;5.27;;;3.10;99.90;;;;;;4826856;29;20371;-83
2022/04/04 01:19:41;;;;;;;9.27;5.20;;;3.20;99.90;;;;;;4829101;29;20056;-83
2022/04/04 01:22:09;;;;;;;11.63;5.37;;;3.30;99.90;;;;;;4853796;29;20049;-83
2022/04/04 01:24:38;;;;;;;9.40;5.70;;;3.20;99.90;;;;;;4847092;29;20057;-83
2022/04/04 01:27:05;;;;;;;9.93;6.00;;;3.30;99.90;;;;;;4836260;29;20037;-82
2022/04/04 01:29:31;;;;;;;10.47;6.47;;;3.20;99.90;;;;;;4827533;29;20088;-83
2022/04/04 01:31:58;;;;;;;12.13;6.13;;;3.30;99.90;;;;;;4828667;29;20149;-83
2022/04/04 01:34:24;;;;;;;12.23;7.13;;;3.20;99.90;;;;;;4829324;29;20045;-83
2022/04/04 01:36:50;;;;;;;11.63;6.43;;;3.30;99.90;;;;;;4841411;29;20441;-83
2022/04/04 01:39:16;;;;;;;11.87;6.53;;;3.30;99.90;;;;;;4811023;29;20553;-82
2022/04/04 01:41:43;;;;;;;15.70;7.03;;;3.30;99.90;;;;;;4852594;29;20064;-83
2022/04/04 01:44:09;;;;;;;14.30;7.10;;;3.30;99.90;;;;;;4840849;29;20132;-83
2022/04/04 01:46:35;;;;;;;13.73;7.57;;;3.30;99.90;;;;;;4846819;29;20584;-82
2022/04/04 01:49:04;;;;;;;13.63;7.07;;;3.40;99.90;;;;;;4841850;29;20048;-82
2022/04/04 01:51:30;;;;;;;15.83;9.63;;;3.40;99.90;;;;;;4850064;29;20297;-83
2022/04/04 01:53:57;;;;;;;15.50;8.70;;;3.40;99.90;;;;;;4836123;29;20438;-80
2022/04/04 01:56:23;;;;;;;13.87;8.43;;;3.40;99.90;;;;;;4835507;29;20589;-83
2022/04/04 01:58:50;;;;;;;12.50;8.93;;;3.50;99.90;;;;;;4851607;29;20052;-84
2022/04/04 02:01:19;;;;;;;12.63;8.90;;;3.40;99.90;;;;;;4850873;29;20051;-82
2022/04/04 02:03:47;;;;;;;13.90;9.07;;;3.40;99.90;;;;;;4870067;29;20045;-82
2022/04/04 02:06:14;;;;;;;17.27;9.60;;;3.50;99.90;;;;;;4833172;29;20720;-82
2022/04/04 02:08:40;;;;;;;17.93;10.40;;;3.50;99.90;;;;;;4831498;29;20041;-83
2022/04/04 02:11:07;;;;;;;15.10;9.90;;;3.50;99.90;;;;;;4829617;29;20075;-84
2022/04/04 02:13:33;;;;;;;16.37;10.63;;;3.40;99.90;;;;;;4829886;29;20056;-83
2022/04/04 02:16:01;;;;;;;16.07;10.40;;;3.50;99.90;;;;;;4860553;29;20045;-83
2022/04/04 02:18:28;;;;;;;15.97;9.93;;;3.50;99.90;;;;;;4856211;29;20080;-84
2022/04/04 02:20:54;;;;;;;15.83;10.70;;;3.50;99.90;;;;;;4856193;29;20049;-83
2022/04/04 02:23:20;;;;;;;18.00;10.33;;;3.50;99.90;;;;;;4831572;29;20470;-83
2022/04/04 02:25:47;;;;;;;17.77;10.27;;;3.50;99.90;;;;;;4831288;29;20049;-84
2022/04/04 02:28:13;;;;;;;15.87;10.07;;;3.50;99.90;;;;;;4846612;29;20083;-84
2022/04/04 02:30:40;;;;;;;17.07;11.47;;;3.50;99.90;;;;;;4822943;29;20394;-84
2022/04/04 02:33:06;;;;;;;15.50;10.80;;;3.60;99.90;;;;;;4816569;29;20037;-85
2022/04/04 02:35:32;;;;;;;13.97;10.50;;;3.60;99.90;;;;;;4823502;29;20698;-83
2022/04/04 02:37:59;;;;;;;16.93;10.43;;;3.60;99.90;;;;;;4858454;29;20052;-83
2022/04/04 02:40:25;;;;;;;17.30;11.10;;;3.70;99.90;;;;;;4846989;29;20053;-82
2022/04/04 02:42:51;;;;;;;18.67;11.20;;;3.70;99.90;;;;;;4846422;29;20046;-85
2022/04/04 02:45:17;;;;;;;18.30;11.73;;;3.70;99.90;;;;;;4831398;29;20120;-83
2022/04/04 02:47:43;;;;;;;20.73;11.57;;;3.70;99.90;;;;;;4839337;29;20060;-84
2022/04/04 02:50:10;;;;;;;17.87;11.27;;;3.80;99.90;;;;;;4812921;29;20386;-84
2022/04/04 02:52:36;;;;;;;17.73;11.33;;;3.90;99.90;;;;;;4833210;29;20052;-83
2022/04/04 02:56:28;;;;;;;19.47;11.10;;;3.90;99.90;;;;;;4843929;29;20041;-82
2022/04/04 02:57:49;;;;;;;19.73;11.40;;;3.90;99.90;;;;;;4848055;29;20557;-84
2022/04/04 03:00:19;;;;;;;18.37;11.30;;;4.00;99.90;;;;;;4846331;29;20057;-82
2022/04/04 03:02:48;;;;;;;19.87;11.63;;;4.10;99.90;;;;;;4847184;29;20821;-85
2022/04/04 03:05:14;;;;;;;22.03;12.17;;;4.20;99.90;;;;;;4852136;29;20458;-84
2022/04/04 03:07:41;;;;;;;18.87;10.60;;;4.20;99.90;;;;;;4827208;29;20050;-83
2022/04/04 03:10:07;;;;;;;20.37;12.13;;;4.20;99.90;;;;;;4835740;29;20106;-84
2022/04/04 03:12:33;;;;;;;22.33;11.73;;;4.30;99.90;;;;;;4836522;29;20048;-84
2022/04/04 03:14:59;;;;;;;19.80;11.50;;;4.40;99.90;;;;;;4847999;29;20120;-83
2022/04/04 03:17:28;;;;;;;20.27;10.67;;;4.40;99.90;;;;;;4845698;29;20068;-83
2022/04/04 03:19:54;;;;;;;21.67;11.47;;;4.50;99.90;;;;;;4842907;29;20141;-83
2022/04/04 03:22:19;;;;;;;21.57;11.90;;;4.50;99.90;;;;;;4835226;29;21313;-84
2022/04/04 03:24:45;;;;;;;19.53;10.97;;;4.50;99.90;;;;;;4837215;29;20065;-82
2022/04/04 03:27:14;;;;;;;18.93;11.50;;;4.50;99.90;;;;;;4849580;29;20058;-86
2022/04/04 03:29:40;;;;;;;19.43;11.63;;;4.60;99.90;;;;;;4848120;29;20036;-82
2022/04/04 03:32:07;;;;;;;21.83;11.63;;;4.60;99.90;;;;;;4831152;29;20041;-85
2022/04/04 03:34:33;;;;;;;22.77;12.90;;;4.60;99.90;;;;;;4830783;29;20041;-84
2022/04/04 03:36:59;;;;;;;19.13;12.63;;;4.70;99.90;;;;;;4834613;29;20068;-82
2022/04/04 03:39:25;;;;;;;18.20;11.43;;;4.70;99.90;;;;;;4845746;29;20447;-84
2022/04/04 03:41:53;;;;;;;23.07;11.73;;;4.70;99.90;;;;;;4859859;29;20046;-85
2022/04/04 03:44:20;;;;;;;19.47;11.67;;;4.70;99.90;;;;;;4827236;29;20466;-86
2022/04/04 03:46:46;;;;;;;19.73;12.60;;;4.80;99.90;;;;;;4844310;29;20071;-85
2022/04/04 03:49:12;;;;;;;24.97;12.83;;;4.80;99.90;;;;;;4827015;29;20061;-83
2022/04/04 03:51:38;;;;;;;20.60;12.33;;;4.80;99.90;;;;;;4829950;29;20050;-86
2022/04/04 03:54:06;;;;;;;19.87;11.73;;;4.80;99.90;;;;;;4829538;29;20041;-85
2022/04/04 03:56:33;;;;;;;22.63;12.87;;;4.90;99.90;;;;;;4843977;29;20447;-84
2022/04/04 03:58:59;;;;;;;17.10;11.47;;;4.90;99.90;;;;;;4843498;29;20041;-84
2022/04/04 04:01:27;;;;;;;18.13;11.03;;;5.00;99.90;;;;;;4829827;29;20511;-81
2022/04/04 04:03:53;;;;;;;18.53;11.50;;;5.00;99.90;;;;;;4830145;29;20042;-83
2022/04/04 04:06:19;;;;;;;20.87;11.90;;;5.00;99.90;;;;;;4833602;29;20057;-84
2022/04/04 04:08:46;;;;;;;19.10;11.43;;;5.00;99.90;;;;;;4830231;29;20056;-82
2022/04/04 04:11:14;;;;;;;19.83;12.17;;;5.00;99.90;;;;;;4828500;29;20149;-83
2022/04/04 04:13:41;;;;;;;22.47;12.33;;;5.00;99.90;;;;;;4827215;29;20565;-85
2022/04/04 04:16:13;;;;;;;18.97;12.47;;;5.10;99.90;;;;;;4861740;29;20109;-84
2022/04/04 04:18:40;;;;;;;17.95;11.32;;;5.10;99.90;;;;;;4845425;29;20045;-83
2022/04/04 04:21:07;;;;;;;19.43;12.17;;;5.10;99.90;;;;;;4844714;29;20041;-83
2022/04/04 04:23:34;;;;;;;18.67;11.00;;;5.00;99.90;;;;;;4852062;29;20048;-82
2022/04/04 04:26:00;;;;;;;18.97;11.67;;;5.00;99.90;;;;;;4836092;29;20389;-84
2022/04/04 04:28:26;;;;;;;20.20;11.60;;;5.00;99.90;;;;;;4849979;29;20044;-86
2022/04/04 04:30:52;;;;;;;21.37;12.23;;;5.10;99.90;;;;;;4849276;29;20069;-84
2022/04/04 04:33:18;;;;;;;20.40;12.80;;;5.10;99.90;;;;;;4852925;29;20540;-84
2022/04/04 04:35:44;;;;;;;19.50;11.80;;;5.00;99.90;;;;;;4829833;29;20053;-83
2022/04/04 04:38:10;;;;;;;17.13;11.27;;;5.00;99.90;;;;;;4829879;29;20042;-86
2022/04/04 04:40:36;;;;;;;18.80;11.27;;;5.00;99.90;;;;;;4831654;29;20059;-84
2022/04/04 04:43:02;;;;;;;19.20;11.73;;;5.10;99.90;;;;;;4836599;29;20040;-84
2022/04/04 04:45:28;;;;;;;20.03;12.53;;;5.00;99.90;;;;;;4859544;29;20501;-84
2022/04/04 04:47:54;;;;;;;19.60;12.07;;;5.00;99.90;;;;;;4856230;29;20062;-85
2022/04/04 04:50:22;;;;;;;22.87;12.53;;;5.00;99.90;;;;;;4855179;29;20045;-83
2022/04/04 04:52:49;;;;;;;20.57;11.57;;;4.90;99.90;;;;;;4832514;29;20037;-84
2022/04/04 04:55:16;;;;;;;22.40;12.07;;;4.90;99.90;;;;;;4844294;29;20181;-85
2022/04/04 04:57:42;;;;;;;18.10;11.53;;;4.90;99.90;;;;;;4830524;29;20045;-84
2022/04/04 05:00:11;;;;;;;18.83;11.67;;;4.90;99.90;;;;;;4851008;29;20053;-84
2022/04/04 05:02:37;;;;;;;19.20;11.77;;;4.90;99.90;;;;;;4826058;29;20041;-83
2022/04/04 05:05:05;;;;;;;23.50;12.37;;;4.90;99.90;;;;;;4830824;29;20041;-85
2022/04/04 05:07:34;;;;;;;21.73;12.60;;;4.90;99.90;;;;;;4821196;29;20057;-85
2022/04/04 05:10:00;;;;;;;23.60;12.97;;;4.90;99.90;;;;;;4820310;29;20045;-84
2022/04/04 05:12:26;;;;;;;20.63;12.30;;;4.90;99.90;;;;;;4828877;29;20042;-83
2022/04/04 05:14:52;;;;;;;18.93;12.63;;;4.90;99.90;;;;;;4826815;29;20173;-83
2022/04/04 05:17:18;;;;;;;22.50;13.17;;;4.90;99.90;;;;;;4843441;29;20045;-82
2022/04/04 05:19:44;;;;;;;19.17;12.83;;;4.90;99.90;;;;;;4829701;29;20033;-84
2022/04/04 05:22:10;;;;;;;16.67;11.77;;;4.90;99.90;;;;;;4844437;29;20490;-85
2022/04/04 05:24:36;;;;;;;23.03;13.23;;;4.90;99.90;;;;;;4843898;29;20057;-85
2022/04/04 05:27:02;;;;;;;21.97;12.80;;;5.00;99.90;;;;;;4832987;29;20052;-83
2022/04/04 05:29:27;;;;;;;17.97;12.77;;;5.00;99.90;;;;;;4829043;29;20061;-84
2022/04/04 05:31:55;;;;;;;21.97;13.40;;;4.90;99.90;;;;;;4830279;29;20444;-85
2022/04/04 05:34:21;;;;;;;17.93;12.60;;;5.00;99.90;;;;;;4820214;29;20121;-86
2022/04/04 05:36:48;;;;;;;21.53;11.80;;;5.00;99.90;;;;;;4847737;29;20056;-83
2022/04/04 05:39:14;;;;;;;16.87;11.43;;;5.00;99.90;;;;;;4840360;29;20046;-87
2022/04/04 05:41:40;;;;;;;19.87;12.17;;;5.00;99.90;;;;;;4830406;29;20045;-86
2022/04/04 05:44:07;;;;;;;17.03;11.97;;;5.00;99.90;;;;;;4844262;29;20042;-83
2022/04/04 05:46:33;;;;;;;21.47;12.57;;;5.00;99.90;;;;;;4816662;29;20053;-86
2022/04/04 05:49:00;;;;;;;18.47;12.07;;;5.10;99.90;;;;;;4829872;29;20084;-85
2022/04/04 05:51:28;;;;;;;20.10;13.33;;;5.10;99.90;;;;;;4829942;29;20119;-84
2022/04/04 05:53:54;;;;;;;19.43;12.43;;;5.10;99.90;;;;;;4835572;29;20049;-86
2022/04/04 05:56:21;;;;;;;19.93;12.30;;;5.10;99.90;;;;;;4845355;29;20392;-85
2022/04/04 05:58:50;;;;;;;18.67;12.20;;;5.10;99.90;;;;;;4847668;29;20052;-85
2022/04/04 06:01:16;;;;;;;24.57;12.43;;;5.10;99.90;;;;;;4831282;29;20477;-85
2022/04/04 06:03:42;;;;;;;18.07;12.40;;;5.10;99.90;;;;;;4823905;29;20053;-86
2022/04/04 06:06:08;;;;;;;19.50;11.97;;;5.10;99.90;;;;;;4850745;29;20409;-85
2022/04/04 06:08:34;;;;;;;20.83;12.70;;;5.10;99.90;;;;;;4823720;29;20179;-83
2022/04/04 06:11:00;;;;;;;18.37;12.10;;;5.10;99.90;;;;;;4815129;29;20197;-83
2022/04/04 06:13:26;;;;;;;17.13;11.63;;;5.00;99.90;;;;;;4835735;29;20532;-87
2022/04/04 06:15:52;;;;;;;20.27;13.50;;;5.10;99.90;;;;;;4832327;29;20048;-87
2022/04/04 06:18:21;;;;;;;18.13;11.77;;;5.00;99.90;;;;;;4817040;29;20045;-83
2022/04/04 06:20:47;;;;;;;20.40;12.20;;;5.00;99.90;;;;;;4846986;29;20501;-86
2022/04/04 06:23:13;;;;;;;24.13;12.90;;;5.00;99.90;;;;;;4847399;29;20048;-86
2022/04/04 06:25:39;;;;;;;18.63;12.20;;;4.90;99.90;;;;;;4829318;29;20124;-85
2022/04/04 06:28:06;;;;;;;19.67;12.20;;;5.00;99.90;;;;;;4830818;29;20133;-83
2022/04/04 06:30:31;;;;;;;17.20;13.20;;;4.90;99.90;;;;;;4830777;29;20049;-83
2022/04/04 06:32:57;;;;;;;20.00;11.73;;;4.90;99.90;;;;;;4828456;29;20132;-85
2022/04/04 06:35:24;;;;;;;19.37;12.87;;;4.90;99.90;;;;;;4830669;29;20045;-84
2022/04/04 06:37:51;;;;;;;20.13;12.40;;;4.90;99.90;;;;;;4845857;29;20049;-83
2022/04/04 06:40:17;;;;;;;17.97;12.43;;;5.00;99.90;;;;;;4846737;29;20133;-83
2022/04/04 06:42:44;;;;;;;20.50;12.33;;;5.00;99.90;;;;;;4830927;29;20089;-83
2022/04/04 06:45:12;;;;;;;17.07;11.80;;;4.90;99.90;;;;;;4846048;29;20136;-85
2022/04/04 06:47:38;;;;;;;18.73;11.97;;;4.90;99.90;;;;;;4830507;29;20061;-85
2022/04/04 06:50:05;;;;;;;18.87;12.60;;;4.90;99.90;;;;;;4830910;29;20045;-84
2022/04/04 06:52:32;;;;;;;20.20;11.77;;;4.90;99.90;;;;;;4830807;29;20037;-85
2022/04/04 06:54:59;;;;;;;19.93;12.60;;;4.90;99.90;;;;;;4830355;29;20541;-85
2022/04/04 06:57:26;;;;;;;21.70;12.70;;;4.90;99.90;;;;;;4830890;29;20105;-82
2022/04/04 06:59:51;;;;;;;20.13;12.67;;;4.80;99.90;;;;;;4830648;29;20064;-85
2022/04/04 07:02:17;;;;;;;20.40;12.83;;;4.80;99.90;;;;;;4815763;29;20046;-86
2022/04/04 07:04:43;;;;;;;20.50;13.73;;;4.80;99.90;;;;;;4830336;29;20045;-85
2022/04/04 07:07:10;;;;;;;19.97;12.80;;;4.70;99.90;;;;;;4837464;29;20046;-86
2022/04/04 07:09:35;;;;;;;19.10;13.83;;;4.70;99.90;;;;;;4828938;29;20086;-85
2022/04/04 07:12:03;;;;;;;22.37;14.13;;;4.70;99.90;;;;;;4845342;29;20154;-85
2022/04/04 07:14:29;;;;;;;20.90;13.47;;;4.70;99.90;;;;;;4845548;29;20075;-84
2022/04/04 07:16:55;;;;;;;17.50;13.23;;;4.70;99.90;;;;;;4862022;29;20401;-84
2022/04/04 07:19:27;;;;;;;21.10;14.30;;;4.70;99.90;;;;;;4830158;29;20128;-84
2022/04/04 07:21:53;;;;;;;21.30;13.27;;;4.70;99.90;;;;;;4830061;29;20089;-85
2022/04/04 07:24:19;;;;;;;19.43;14.30;;;4.70;99.90;;;;;;4830359;29;20049;-85
2022/04/04 07:26:48;;;;;;;21.47;14.37;;;4.80;99.90;;;;;;4830419;29;20060;-84
2022/04/04 07:29:14;;;;;;;22.90;14.27;;;4.80;99.90;;;;;;4830162;29;20052;-87
2022/04/04 07:31:41;;;;;;;24.73;15.50;;;4.80;99.90;;;;;;4829851;29;20511;-83
2022/04/04 07:34:07;;;;;;;21.77;13.87;;;4.80;99.90;;;;;;4845354;29;20046;-86
2022/04/04 07:36:33;;;;;;;23.30;14.83;;;4.80;99.90;;;;;;4829816;29;20045;-83
2022/04/04 07:38:59;;;;;;;21.10;14.33;;;4.80;99.90;;;;;;4829956;29;20057;-83
2022/04/04 07:41:25;;;;;;;21.43;14.63;;;4.90;99.90;;;;;;4829858;29;20682;-83
2022/04/04 07:43:51;;;;;;;23.73;15.13;;;4.80;99.90;;;;;;4844493;29;20410;-85
2022/04/04 07:46:17;;;;;;;20.93;14.27;;;4.90;99.90;;;;;;4829411;29;20049;-86
2022/04/04 07:48:42;;;;;;;24.27;15.93;;;4.80;99.90;;;;;;4829677;29;20493;-86
2022/04/04 07:51:08;;;;;;;23.20;14.97;;;4.90;99.90;;;;;;4829448;29;20114;-83
2022/04/04 07:53:35;;;;;;;23.63;14.53;;;4.90;99.90;;;;;;4827946;29;20048;-85
2022/04/04 07:56:01;;;;;;;22.60;14.80;;;4.90;99.90;;;;;;4829011;29;20466;-85
2022/04/04 07:58:27;;;;;;;26.33;16.47;;;4.90;99.90;;;;;;4844973;29;20038;-85
2022/04/04 08:00:54;;;;;;;26.63;17.13;;;4.90;99.90;;;;;;4814138;29;20086;-86
2022/04/04 08:03:21;;;;;;;32.70;18.10;;;4.90;99.90;;;;;;4828348;29;20045;-86
2022/04/04 08:05:47;;;;;;;25.30;16.03;;;4.90;99.90;;;;;;4829591;29;20478;-86
2022/04/04 08:08:13;;;;;;;26.37;16.97;;;4.90;99.90;;;;;;4844108;29;20051;-87
2022/04/04 08:10:39;;;;;;;27.33;17.90;;;5.00;99.90;;;;;;4828945;29;20490;-85
2022/04/04 08:13:05;;;;;;;28.93;17.87;;;4.90;99.90;;;;;;4844203;29;20056;-88
2022/04/04 08:15:31;;;;;;;27.53;17.70;;;4.90;99.90;;;;;;4829361;29;20049;-87
2022/04/04 08:17:57;;;;;;;27.57;17.40;;;4.90;99.90;;;;;;4829268;29;20049;-84
2022/04/04 08:20:23;;;;;;;28.10;18.43;;;5.00;99.90;;;;;;4829133;29;20037;-84
2022/04/04 08:22:49;;;;;;;28.43;18.83;;;5.00;99.90;;;;;;4829266;29;20075;-85
2022/04/04 08:25:16;;;;;;;28.70;17.93;;;5.00;99.90;;;;;;4841181;29;20050;-86
2022/04/04 08:27:43;;;;;;;29.37;18.70;;;5.00;99.90;;;;;;4828665;29;20044;-85
2022/04/04 08:30:12;;;;;;;29.63;19.70;;;5.00;99.90;;;;;;4830011;29;20045;-83
2022/04/04 08:32:39;;;;;;;27.87;18.07;;;5.10;99.90;;;;;;4828315;29;20810;-85
2022/04/04 08:35:07;;;;;;;26.53;18.67;;;5.10;99.90;;;;;;4843473;29;20324;-87
2022/04/04 08:37:34;;;;;;;23.27;14.70;;;5.10;99.90;;;;;;4844943;29;20060;-86
2022/04/04 08:40:02;;;;;;;25.43;17.13;;;5.10;99.90;;;;;;4829105;29;20050;-86
2022/04/04 08:42:29;;;;;;;23.80;16.63;;;5.20;99.90;;;;;;4829118;29;20574;-85
2022/04/04 08:44:59;;;;;;;22.63;16.40;;;5.20;99.90;;;;;;4828695;29;20060;-86
2022/04/04 08:47:27;;;;;;;23.03;15.63;;;5.20;99.90;;;;;;4813263;29;20058;-84
2022/04/04 08:49:54;;;;;;;20.60;14.20;;;5.30;99.90;;;;;;4843993;29;20081;-84
2022/04/04 08:52:21;;;;;;;20.23;14.40;;;5.30;99.90;;;;;;4844278;29;20564;-85
2022/04/04 08:54:47;;;;;;;24.03;15.03;;;5.20;99.90;;;;;;4844418;29;20375;-85
2022/04/04 08:57:14;;;;;;;23.20;14.20;;;5.30;99.90;;;;;;4829373;29;20049;-85
2022/04/04 08:59:39;;;;;;;17.97;13.20;;;5.30;99.90;;;;;;4829222;29;20161;-86
2022/04/04 09:02:05;;;;;;;17.27;12.67;;;5.40;99.90;;;;;;4828950;29;20103;-86
2022/04/04 09:04:33;;;;;;;16.97;12.27;;;5.40;99.90;;;;;;4844100;29;20045;-83
2022/04/04 09:07:05;;;;;;;15.27;12.27;;;5.40;99.90;;;;;;4842981;29;20054;-84
2022/04/04 09:09:43;;;;;;;14.63;10.57;;;5.40;99.90;;;;;;4828666;29;20092;-84
2022/04/04 09:12:11;;;;;;;18.03;9.90;;;5.40;99.90;;;;;;4844096;29;20049;-85
2022/04/04 09:14:51;;;;;;;11.93;8.40;;;5.50;99.90;;;;;;4828989;29;20076;-84
2022/04/04 09:17:27;;;;;;;14.77;9.50;;;5.50;99.90;;;;;;4829012;29;20057;-86
2022/04/04 09:19:53;;;;;;;12.60;7.77;;;5.50;99.90;;;;;;4828610;29;20090;-84
2022/04/04 09:22:20;;;;;;;13.73;7.70;;;5.40;99.90;;;;;;4827956;29;20450;-84
2022/04/04 09:24:48;;;;;;;13.67;7.47;;;5.50;99.90;;;;;;4828209;29;20528;-83
2022/04/04 09:27:23;;;;;;;10.23;6.47;;;5.50;99.90;;;;;;4843362;29;20045;-82
2022/04/04 09:29:52;;;;;;;9.43;6.27;;;5.60;99.90;;;;;;4843718;29;20064;-87
2022/04/04 09:32:18;;;;;;;9.77;6.50;;;5.60;99.90;;;;;;4828439;29;20052;-86
2022/04/04 09:35:08;;;;;;;9.40;6.20;;;5.60;99.90;;;;;;4843623;29;20046;-83
2022/04/04 09:37:35;;;;;;;7.87;4.97;;;5.60;99.90;;;;;;4843702;29;20049;-86
2022/04/04 09:40:19;;;;;;;8.23;4.73;;;5.60;99.90;;;;;;4828580;29;20052;-85
2022/04/04 09:42:51;;;;;;;8.13;4.70;;;5.60;99.90;;;;;;4828288;29;20412;-84
2022/04/04 09:45:18;;;;;;;;;;;5.70;99.90;;;;;;4825909;29;20128;-82
2022/04/04 09:47:59;;;;;;;6.80;4.10;;;5.70;99.90;;;;;;4812667;29;19928;-84
2022/04/04 09:50:31;;;;;;;5.65;3.78;;;5.70;99.90;;;;;;4799919;29;20084;-84
2022/04/04 09:52:58;;;;;;;7.20;3.40;;;5.70;99.90;;;;;;4843073;29;20386;-86
2022/04/04 09:55:38;;;;;;;4.27;3.73;;;5.80;99.90;;;;;;4827789;29;20124;-84
2022/04/04 09:58:07;;;;;;;6.40;4.00;;;5.80;99.90;;;;;;4843278;29;20453;-81
2022/04/04 10:00:37;;;;;;;7.43;4.10;;;5.80;99.90;;;;;;4828428;29;20093;-84
2022/04/04 10:03:06;;;;;;;5.53;3.83;;;5.90;99.90;;;;;;4826688;29;20045;-84
2022/04/04 10:05:35;;;;;;;5.27;4.07;;;5.80;99.90;;;;;;4827803;29;20098;-84
2022/04/04 10:08:01;;;;;;;6.90;4.60;;;5.90;99.90;;;;;;4842841;29;20077;-81
2022/04/04 10:10:30;;;;;;;5.50;3.87;;;6.00;99.90;;;;;;4827847;29;20374;-85
2022/04/04 10:12:57;;;;;;;7.13;4.40;;;5.90;99.90;;;;;;4859481;29;20509;-86
2022/04/04 10:15:25;;;;;;;6.33;4.10;;;6.00;99.90;;;;;;4843041;29;20075;-83
2022/04/04 10:17:52;;;;;;;6.63;4.70;;;6.10;99.90;;;;;;4811886;29;20061;-86
2022/04/04 10:20:19;;;;;;;6.50;4.37;;;6.00;99.90;;;;;;4821371;29;20565;-84
2022/04/04 10:22:47;;;;;;;6.13;4.80;;;5.90;99.90;;;;;;4830714;29;20051;-85
2022/04/04 10:25:15;;;;;;;4.83;3.90;;;5.90;99.90;;;;;;4830760;29;20185;-83
2022/04/04 10:27:46;;;;;;;5.90;4.77;;;5.90;99.90;;;;;;4801298;29;20053;-82
2022/04/04 10:30:12;;;;;;;4.63;4.23;;;5.90;99.90;;;;;;4813025;29;20131;-86
2022/04/04 10:32:51;;;;;;;5.10;4.23;;;6.00;99.90;;;;;;4829350;29;20045;-87
2022/04/04 10:35:24;;;;;;;6.37;4.87;;;6.00;99.90;;;;;;4830811;29;20085;-85
2022/04/04 10:37:50;;;;;;;5.60;4.50;;;6.00;99.90;;;;;;4830953;29;20260;-84
2022/04/04 10:40:20;;;;;;;5.70;4.43;;;6.00;99.90;;;;;;4830759;29;20056;-85
2022/04/04 10:42:48;;;;;;;7.20;5.20;;;6.00;99.90;;;;;;4830862;29;20045;-87
2022/04/04 10:45:16;;;;;;;5.87;4.80;;;6.00;99.90;;;;;;4830528;29;20109;-83
2022/04/04 10:47:44;;;;;;;7.00;4.63;;;6.00;99.90;;;;;;4830021;29;20081;-84
2022/04/04 10:50:24;;;;;;;5.47;4.70;;;6.10;99.90;;;;;;4845579;29;20058;-82
2022/04/04 10:52:57;;;;;;;7.03;4.77;;;6.10;99.90;;;;;;4809949;29;20119;-87
2022/04/04 10:55:38;;;;;;;6.20;4.70;;;6.10;99.90;;;;;;4830921;29;20041;-85
2022/04/04 10:58:10;;;;;;;6.13;4.50;;;6.10;99.90;;;;;;4845967;29;20050;-83
2022/04/04 11:00:57;;;;;;;5.72;4.40;;;6.10;99.90;;;;;;4831246;29;20057;-84
2022/04/04 11:03:35;;;;;;;5.93;4.40;;;6.10;99.90;;;;;;4830415;29;20045;-86
2022/04/04 11:09:14;;;;;;;5.77;4.60;;;6.20;99.90;;;;;;4833675;29;20150;-85
2022/04/04 11:12:14;;;;;;;4.93;4.33;;;6.20;99.90;;;;;;4826834;29;20065;-84
2022/04/04 11:14:42;;;;;;;7.03;4.60;;;6.30;99.90;;;;;;4827419;29;20406;-86
2022/04/04 11:20:21;;;;;;;5.17;4.50;;;6.40;99.90;;;;;;4845191;29;20085;-89
2022/04/04 11:22:52;;;;;;;;;;;6.40;99.90;;;;;;4836407;29;20096;-84
2022/04/04 11:25:20;;;;;;;6.93;4.40;;;6.40;99.90;;;;;;4845115;29;19927;-86
2022/04/04 11:27:50;;;;;;;5.83;4.77;;;6.40;99.90;;;;;;4829752;29;20037;-88
2022/04/04 11:30:27;;;;;;;7.30;4.30;;;6.50;99.90;;;;;;4828794;29;20046;-88
2022/04/04 11:32:54;;;;;;;5.80;3.47;;;6.60;99.90;;;;;;4847831;29;20049;-87
2022/04/04 11:35:30;;;;;;;5.13;3.77;;;6.60;99.90;;;;;;4832496;29;20050;-88
2022/04/04 11:37:59;;;;;;;6.10;3.83;;;6.60;99.90;;;;;;4830137;29;20124;-88
2022/04/04 11:40:33;;;;;;;3.97;3.60;;;6.70;99.90;;;;;;4829215;29;20092;-88
2022/04/04 11:43:02;;;;;;;3.93;3.20;;;6.70;99.90;;;;;;4830005;29;20053;-87
2022/04/04 11:45:32;;;;;;;4.20;3.30;;;6.70;99.90;;;;;;4829740;29;20058;-86
2022/04/04 11:48:04;;;;;;;4.73;3.10;;;6.80;99.90;;;;;;4829391;29;20050;-85
2022/04/04 11:50:34;;;;;;;4.32;3.33;;;6.80;99.90;;;;;;4834381;29;20175;-86
2022/04/04 11:53:11;;;;;;;3.93;3.10;;;6.90;99.90;;;;;;4828438;29;20557;-84
2022/04/04 11:55:41;;;;;;;3.80;3.10;;;6.90;99.90;;;;;;4828347;29;20052;-83
2022/04/04 11:58:15;;;;;;;5.37;2.90;;;7.00;99.90;;;;;;4828365;29;20054;-87
2022/04/04 12:00:55;;;;;;;3.57;3.17;;;7.00;99.90;;;;;;4843139;29;20486;-83
2022/04/04 12:03:27;;;;;;;4.00;2.67;;;7.00;99.90;;;;;;4833019;29;20045;-87
2022/04/04 12:05:53;;;;;;;3.40;2.13;;;7.10;99.90;;;;;;4842806;29;20128;-84
2022/04/04 12:08:21;;;;;;;4.43;2.50;;;7.00;99.90;;;;;;4813212;29;20110;-85
2022/04/04 12:10:49;;;;;;;8.53;2.63;;;7.10;99.90;;;;;;4827033;29;20033;-84
2022/04/04 12:13:21;;;;;;;2.37;2.07;;;7.10;99.90;;;;;;4826184;29;20493;-84
2022/04/04 12:15:49;;;;;;;3.42;1.80;;;7.20;99.90;;;;;;4842095;29;20049;-86
2022/04/04 12:18:27;;;;;;;4.60;2.00;;;7.10;99.90;;;;;;4828081;29;20128;-86
2022/04/04 12:20:58;;;;;;;2.10;1.90;;;7.10;99.90;;;;;;4842109;29;20085;-86
2022/04/04 12:26:13;;;;;;;3.13;1.83;;;7.20;99.90;;;;;;4844086;29;20535;-82
2022/04/04 12:28:41;;;;;;;3.97;2.03;;;7.10;99.90;;;;;;4828938;29;20086;-84
2022/04/04 12:31:14;;;;;;;3.37;1.80;;;7.20;99.90;;;;;;4795436;29;20108;-86
2022/04/04 12:33:40;;;;;;;3.90;1.80;;;7.20;99.90;;;;;;4825977;29;20041;-84
2022/04/04 12:36:06;;;;;;;2.43;1.90;;;7.30;99.90;;;;;;4828079;29;20387;-84
2022/04/04 12:38:36;;;;;;;2.73;1.67;;;7.30;99.90;;;;;;4844094;29;20124;-85
2022/04/04 12:41:13;;;;;;;1.80;1.70;;;7.30;99.90;;;;;;4844076;29;20053;-86
2022/04/04 12:43:45;;;;;;;1.70;1.60;;;7.40;99.90;;;;;;4826163;29;20048;-85
2022/04/04 12:46:27;;;;;;;2.67;1.60;;;7.40;99.90;;;;;;4856496;29;20037;-87
2022/04/04 12:48:55;;;;;;;1.60;1.50;;;7.40;99.90;;;;;;4836784;29;20065;-84
2022/04/04 12:51:30;;;;;;;1.83;1.60;;;7.50;99.90;;;;;;4837220;29;20046;-86
2022/04/04 12:54:00;;;;;;;4.23;1.87;;;7.50;99.90;;;;;;4841236;29;20049;-86
2022/04/04 12:56:31;;;;;;;1.60;1.47;;;7.50;99.90;;;;;;4837816;29;20050;-89
2022/04/04 12:59:08;;;;;;;2.50;1.98;;;7.50;99.90;;;;;;4841068;29;20049;-83